KBBD/BBD METAR and TAF weather

Enter ICAO airport designator
Station Type Date Time Source
KBBD METAR 2020/09/27 00:55 UTC NOAA

KBBD 270055Z AUTO 18004KT 10SM CLR 28/16 A2981 RMK AO2


Station Type Date Time Source
KBBD Decoded METAR 2020/09/27 00:55 UTC NOAA

Brady, Curtis Field Airport, TX, United States (KBBD) 31-10-45N 099-19-26W
Sep 26, 2020 - 08:55 PM EDT / 2020.09.27 0055 UTC
Wind: from the S (180 degrees) at 5 MPH (4 KT):0
Visibility: 10 mile(s):0
Sky conditions: clear
Temperature: 82 F (28 C)
Dew Point: 60 F (16 C)
Relative Humidity: 48%
Pressure (altimeter): 29.81 in. Hg (1009 hPa)
ob: KBBD 270055Z AUTO 18004KT 10SM CLR 28/16 A2981 RMK AO2
cycle: 1

Station Type Date Time Source
KBBD TAF 2020/09/26 18:39 UTC NOAA

TAF KBBD 261737Z 2618/2718 19011G17KT P6SM SKC
FM270000 18010KT P6SM SKC
FM270900 18012G18KT P6SM SKC
FM271500 18012G18KT P6SM OVC015

Example: see airport list